Terminal Aerodrome Forecast
Issued by NWS

Home | Current Version | Previous Version | Text Only | Print | Product List | Glossary On
Versions: 1 2 3 4 5 6 7 8 9 10 11 12 13 14 15 16 17 18 19 20 21 22 23 24 25 26 27 28 29 30 31
052
FTUS46 KLOX 280541
TAFLAX
TAF
KLAX 280541Z 2806/2912 28007KT P6SM OVC015
     FM281500 25007KT P6SM OVC022
     FM282100 25012KT P6SM BKN025
     FM290300 25008KT P6SM OVC015
     FM290800 VRB03KT P6SM OVC022=

USA.gov is the U.S. government's official web portal to all federal, state and local government web resources and services.